Time;durP1;ratioP1;P1;durP2;ratioP2;P2;SDS_P1;SDS_P2;PMS_P1;PMS_P2;Temp;Humidity;BMP_temperature;BMP_pressure;BME280_temperature;BME280_humidity;BME280_pressure;Samples;Min_cycle;Max_cycle;Signal;HPM_P1;HPM_P2
2023/03/07 09:47:57;;;;;;;5.50;3.27;;;6.30;99.90;;;;;;4990346;23;20244;-75
2023/03/07 09:50:34;;;;;;;6.87;3.63;;;6.20;99.90;;;;;;4897429;29;20222;-74
2023/03/07 09:53:03;;;;;;;9.17;3.80;;;6.20;99.90;;;;;;4899779;29;20568;-75
2023/03/07 09:55:31;;;;;;;6.00;3.30;;;6.00;99.90;;;;;;4899858;29;20242;-74
2023/03/07 09:58:03;;;;;;;9.77;3.90;;;6.00;99.90;;;;;;4899861;29;20210;-75
2023/03/07 10:00:35;;;;;;;5.57;3.43;;;5.90;99.90;;;;;;4899900;29;20218;-75
2023/03/07 10:03:12;;;;;;;6.63;3.23;;;5.80;99.90;;;;;;4899628;29;20245;-74
2023/03/07 10:05:45;;;;;;;8.83;3.90;;;5.80;99.90;;;;;;4899502;29;20238;-74
2023/03/07 10:08:15;;;;;;;7.00;3.57;;;5.80;99.90;;;;;;4899517;29;20210;-74
2023/03/07 10:10:46;;;;;;;12.13;3.67;;;5.90;99.90;;;;;;4899441;29;20221;-74
2023/03/07 10:13:33;;;;;;;5.63;3.17;;;5.80;99.90;;;;;;4899469;29;20215;-74
2023/03/07 10:16:04;;;;;;;6.40;3.20;;;5.80;99.90;;;;;;4899516;29;20240;-75
2023/03/07 10:18:52;;;;;;;5.10;2.60;;;5.90;99.90;;;;;;4899531;29;20729;-75
2023/03/07 10:21:25;;;;;;;4.80;2.40;;;5.90;99.90;;;;;;4899397;29;20573;-74
2023/03/07 10:24:21;;;;;;;5.20;2.97;;;6.00;99.90;;;;;;4899373;29;20238;-75
2023/03/07 10:26:54;;;;;;;4.33;2.63;;;6.00;99.90;;;;;;4873820;29;20245;-75
2023/03/07 10:29:27;;;;;;;5.73;3.03;;;6.00;99.90;;;;;;4899041;29;20206;-74
2023/03/07 10:31:56;;;;;;;3.90;2.37;;;6.00;99.90;;;;;;4899169;29;20561;-74
2023/03/07 10:34:26;;;;;;;6.37;2.70;;;6.10;99.90;;;;;;4899030;29;20220;-75
2023/03/07 10:37:00;;;;;;;6.63;2.37;;;6.10;99.90;;;;;;4899165;29;20210;-75
2023/03/07 10:39:34;;;;;;;4.43;2.27;;;6.20;99.90;;;;;;4899180;29;20219;-74
2023/03/07 10:42:01;;;;;;;4.23;2.57;;;6.20;99.90;;;;;;4898801;29;20205;-74
2023/03/07 10:44:33;;;;;;;4.83;2.40;;;6.20;99.90;;;;;;4898548;29;20692;-75
2023/03/07 10:47:00;;;;;;;5.33;3.10;;;6.20;99.90;;;;;;4899175;29;20319;-74
2023/03/07 10:49:30;;;;;;;9.20;3.63;;;6.30;99.90;;;;;;4898646;29;20226;-74
2023/03/07 10:52:03;;;;;;;9.83;3.57;;;6.40;99.90;;;;;;4898853;29;20561;-74
2023/03/07 10:54:31;;;;;;;6.80;3.03;;;6.50;99.90;;;;;;4898610;29;20305;-75
2023/03/07 10:57:06;;;;;;;4.67;3.20;;;6.40;99.90;;;;;;4898369;29;20701;-74
2023/03/07 10:59:34;;;;;;;5.87;3.03;;;6.40;99.90;;;;;;4898789;29;20206;-74
2023/03/07 11:02:04;;;;;;;5.20;2.90;;;6.50;99.90;;;;;;4898806;29;20214;-75
2023/03/07 11:04:43;;;;;;;6.10;3.37;;;6.50;99.90;;;;;;4898427;29;20214;-75
2023/03/07 11:07:27;;;;;;;5.17;2.77;;;6.50;99.90;;;;;;4898125;29;20745;-75
2023/03/07 11:09:54;;;;;;;4.83;2.47;;;6.40;99.90;;;;;;4898678;29;20573;-74
2023/03/07 11:12:22;;;;;;;4.67;2.13;;;6.40;99.90;;;;;;4899058;29;20210;-75
2023/03/07 11:14:51;;;;;;;5.37;1.80;;;6.30;99.90;;;;;;4898611;29;20571;-75
2023/03/07 11:17:20;;;;;;;3.03;1.50;;;6.20;99.90;;;;;;4898174;29;20206;-75
2023/03/07 11:19:48;;;;;;;2.57;1.60;;;6.30;99.90;;;;;;4898592;29;20216;-75
2023/03/07 11:22:27;;;;;;;2.53;1.60;;;6.40;99.90;;;;;;4898717;29;20310;-75
2023/03/07 11:24:58;;;;;;;3.90;1.40;;;6.50;99.90;;;;;;4898608;29;20229;-75
2023/03/07 11:27:33;;;;;;;1.90;1.30;;;6.60;99.90;;;;;;4897842;29;20695;-75
2023/03/07 11:30:25;;;;;;;1.90;1.10;;;6.60;99.90;;;;;;4897909;29;20269;-75
2023/03/07 11:32:59;;;;;;;1.33;1.00;;;6.70;99.90;;;;;;4883868;29;20218;-75
2023/03/07 11:35:39;;;;;;;2.73;1.20;;;6.60;99.90;;;;;;4898125;29;20295;-75
2023/03/07 11:38:13;;;;;;;1.30;1.03;;;6.50;99.90;;;;;;4897753;29;20602;-75
2023/03/07 11:40:49;;;;;;;1.83;1.17;;;6.60;99.90;;;;;;4897965;29;20300;-75
2023/03/07 11:43:21;;;;;;;3.10;1.10;;;6.60;99.90;;;;;;4897487;29;20266;-75
2023/03/07 11:45:55;;;;;;;2.77;1.40;;;6.70;99.90;;;;;;4897584;29;20723;-74
2023/03/07 11:48:41;;;;;;;2.50;1.37;;;6.70;99.90;;;;;;4898313;29;20215;-74
2023/03/07 11:51:28;;;;;;;1.77;1.30;;;6.80;99.90;;;;;;4898563;29;20210;-75
2023/03/07 11:54:06;;;;;;;2.57;1.30;;;6.90;99.90;;;;;;4897889;29;20222;-74
2023/03/07 11:56:36;;;;;;;1.73;1.13;;;6.90;99.90;;;;;;4897778;29;20732;-74
2023/03/07 11:59:26;;;;;;;2.33;1.00;;;7.00;99.90;;;;;;4897683;29;20570;-74
2023/03/07 12:01:55;;;;;;;1.87;1.03;;;7.00;99.90;;;;;;4898178;29;20210;-75
2023/03/07 12:04:53;;;;;;;2.10;1.37;;;6.80;99.90;;;;;;4897920;29;20237;-74
2023/03/07 12:07:43;;;;;;;2.33;1.33;;;6.90;99.90;;;;;;4898562;29;20305;-74
2023/03/07 12:10:30;;;;;;;2.97;1.53;;;6.70;99.90;;;;;;4895723;29;20573;-74
2023/03/07 12:13:14;;;;;;;3.20;1.40;;;6.70;99.90;;;;;;4897981;29;20218;-75
2023/03/07 12:15:50;;;;;;;1.97;1.20;;;6.70;99.90;;;;;;4897998;29;20230;-74
2023/03/07 12:18:49;;;;;;;4.50;1.60;;;6.80;99.90;;;;;;4897694;29;20680;-74
2023/03/07 12:21:40;;;;;;;2.60;1.27;;;6.70;99.90;;;;;;4897856;29;20214;-74
2023/03/07 12:24:15;;;;;;;3.47;1.20;;;6.60;99.90;;;;;;4887972;29;20242;-75
2023/03/07 12:26:51;;;;;;;2.20;1.50;;;6.60;99.90;;;;;;4897978;29;20210;-75
2023/03/07 12:29:26;;;;;;;2.53;1.40;;;6.80;99.90;;;;;;4897785;29;20294;-74
2023/03/07 12:31:58;;;;;;;1.90;1.20;;;6.70;99.90;;;;;;4896914;29;20216;-74
2023/03/07 12:34:34;;;;;;;2.63;1.30;;;6.80;99.90;;;;;;4896815;29;20208;-75
2023/03/07 12:37:06;;;;;;;2.07;1.40;;;6.70;99.90;;;;;;4896136;29;20220;-75
2023/03/07 12:39:44;;;;;;;2.50;1.57;;;6.80;99.90;;;;;;4897569;29;20692;-74
2023/03/07 12:42:20;;;;;;;2.07;1.27;;;7.00;99.90;;;;;;4897418;29;20673;-75
2023/03/07 12:44:50;;;;;;;1.87;1.27;;;6.80;99.90;;;;;;4897371;29;20249;-74
2023/03/07 12:47:23;;;;;;;3.17;1.47;;;6.80;99.90;;;;;;4897724;29;20215;-74
2023/03/07 12:49:56;;;;;;;2.70;1.30;;;6.80;99.90;;;;;;4897488;29;20658;-74
2023/03/07 12:52:35;;;;;;;2.33;1.60;;;6.80;99.90;;;;;;4897793;29;20211;-74
2023/03/07 12:55:10;;;;;;;2.03;1.30;;;6.70;99.90;;;;;;4897488;29;20590;-75
2023/03/07 12:57:43;;;;;;;1.60;0.93;;;6.60;99.90;;;;;;4897635;29;20216;-75
2023/03/07 13:00:15;;;;;;;2.10;1.30;;;6.50;99.90;;;;;;4897401;29;20258;-76
2023/03/07 13:02:47;;;;;;;1.63;1.00;;;6.60;99.90;;;;;;4892497;29;20214;-76
2023/03/07 13:05:19;;;;;;;2.03;1.20;;;6.60;99.90;;;;;;4878545;29;20223;-77
2023/03/07 13:07:48;;;;;;;5.37;0.93;;;6.60;99.90;;;;;;4882022;29;20210;-76
2023/03/07 13:10:19;;;;;;;1.57;1.07;;;6.50;99.90;;;;;;4881955;29;20219;-76
2023/03/07 13:12:48;;;;;;;2.30;0.80;;;6.50;99.90;;;;;;4899511;29;20233;-75
2023/03/07 13:15:47;;;;;;;1.83;1.00;;;6.40;99.90;;;;;;4900817;29;20233;-75
2023/03/07 13:18:34;;;;;;;1.13;0.80;;;6.40;99.90;;;;;;4900657;29;20210;-75
2023/03/07 13:21:14;;;;;;;1.30;0.80;;;6.50;99.90;;;;;;4898145;29;20221;-74
2023/03/07 13:23:41;;;;;;;1.30;0.63;;;6.50;99.90;;;;;;4900057;29;20234;-75
2023/03/07 13:26:13;;;;;;;1.30;1.07;;;6.50;99.90;;;;;;4900226;29;20233;-75
2023/03/07 13:28:47;;;;;;;2.93;0.90;;;6.60;99.90;;;;;;4900536;29;20206;-75
2023/03/07 13:31:39;;;;;;;1.23;0.83;;;6.70;99.90;;;;;;4900047;29;20203;-75
2023/03/07 13:34:51;;;;;;;1.53;1.10;;;6.60;99.90;;;;;;4900142;29;20211;-78
2023/03/07 13:37:49;;;;;;;0.90;0.80;;;6.40;99.90;;;;;;4900505;29;20246;-75
2023/03/07 13:40:48;;;;;;;3.40;1.13;;;6.40;99.90;;;;;;4900751;29;20218;-77
2023/03/07 13:43:53;;;;;;;2.53;1.13;;;6.60;99.90;;;;;;4881509;29;20239;-78
2023/03/07 13:46:46;;;;;;;1.47;0.87;;;6.60;99.90;;;;;;4881073;29;20253;-74
2023/03/07 13:49:38;;;;;;;3.07;1.07;;;6.60;99.90;;;;;;4881253;29;20219;-74
2023/03/07 13:52:29;;;;;;;1.20;0.80;;;6.60;99.90;;;;;;4893651;29;20222;-75
2023/03/07 13:54:57;;;;;;;3.30;1.10;;;6.60;99.90;;;;;;4899972;29;20234;-74
2023/03/07 13:57:29;;;;;;;2.00;1.00;;;6.60;99.90;;;;;;4899940;29;20262;-77
2023/03/07 13:59:56;;;;;;;1.80;1.10;;;6.70;99.90;;;;;;4899840;29;20211;-76
2023/03/07 14:02:24;;;;;;;2.87;1.10;;;6.80;99.90;;;;;;4899920;29;20259;-74
2023/03/07 14:04:54;;;;;;;3.87;1.00;;;7.00;99.90;;;;;;4899696;29;20307;-73
2023/03/07 14:07:24;;;;;;;2.90;1.20;;;7.30;99.90;;;;;;4899733;29;20245;-74
2023/03/07 14:09:54;;;;;;;1.37;0.97;;;7.50;99.90;;;;;;4899662;29;20241;-73
2023/03/07 14:12:33;;;;;;;1.40;0.90;;;7.60;99.90;;;;;;4899939;29;20210;-73
2023/03/07 14:15:15;;;;;;;1.07;0.90;;;7.70;99.90;;;;;;4899891;29;20229;-73
2023/03/07 14:17:56;;;;;;;1.43;1.03;;;7.50;99.90;;;;;;4898324;29;20206;-74
2023/03/07 14:20:30;;;;;;;1.97;1.23;;;7.40;99.90;;;;;;4898892;29;20218;-74
2023/03/07 14:23:09;;;;;;;2.67;1.10;;;7.40;99.90;;;;;;4898960;29;20229;-74
2023/03/07 14:25:37;;;;;;;1.40;0.90;;;7.20;99.90;;;;;;4899539;29;20233;-76
2023/03/07 14:28:21;;;;;;;1.23;0.73;;;7.30;99.90;;;;;;4899590;29;20301;-74
2023/03/07 14:30:54;;;;;;;2.10;1.10;;;7.20;99.90;;;;;;4899172;29;20216;-76
2023/03/07 14:33:30;;;;;;;1.37;1.03;;;7.20;99.90;;;;;;4899358;29;20289;-77
2023/03/07 14:35:56;;;;;;;2.60;1.40;;;7.30;99.90;;;;;;4899304;29;20236;-75
2023/03/07 14:38:25;;;;;;;2.43;1.10;;;7.20;99.90;;;;;;4899210;29;20214;-77
2023/03/07 14:41:12;;;;;;;1.20;1.00;;;7.30;99.90;;;;;;4899147;29;20688;-75
2023/03/07 14:44:01;;;;;;;1.40;1.00;;;7.20;99.90;;;;;;4897481;29;20242;-75
2023/03/07 14:46:36;;;;;;;2.07;1.17;;;7.10;99.90;;;;;;4899176;29;20317;-75
2023/03/07 14:49:13;;;;;;;1.87;1.30;;;7.10;99.90;;;;;;4898750;29;20217;-75
2023/03/07 14:51:41;;;;;;;1.60;1.10;;;7.10;99.90;;;;;;4898304;29;20210;-75
2023/03/07 14:54:15;;;;;;;1.30;0.97;;;7.20;99.90;;;;;;4898543;29;20482;-75
2023/03/07 14:56:42;;;;;;;1.70;1.20;;;7.20;99.90;;;;;;4897655;29;20227;-76
2023/03/07 14:59:13;;;;;;;1.23;0.87;;;7.20;99.90;;;;;;4898939;29;20215;-75
2023/03/07 15:01:41;;;;;;;1.50;0.80;;;7.00;99.90;;;;;;4898650;29;20565;-76
2023/03/07 15:04:22;;;;;;;2.23;1.40;;;6.90;99.90;;;;;;4898602;29;20328;-75
2023/03/07 15:06:54;;;;;;;2.67;1.30;;;6.80;99.90;;;;;;4898581;29;20308;-74
2023/03/07 15:09:22;;;;;;;1.47;1.07;;;6.70;99.90;;;;;;4898709;29;20218;-75
2023/03/07 15:11:53;;;;;;;2.00;1.20;;;6.60;99.90;;;;;;4898577;29;20266;-76
2023/03/07 15:14:25;;;;;;;1.67;1.07;;;6.70;99.90;;;;;;4898524;29;20210;-76
2023/03/07 15:16:55;;;;;;;2.10;1.37;;;6.70;99.90;;;;;;4898367;29;20214;-74
2023/03/07 15:19:31;;;;;;;1.90;1.10;;;6.80;99.90;;;;;;4898059;29;20225;-75
2023/03/07 15:22:01;;;;;;;2.00;1.10;;;6.60;99.90;;;;;;4898345;29;20210;-74
2023/03/07 15:24:32;;;;;;;1.77;1.00;;;6.50;99.90;;;;;;4898471;29;20242;-74
2023/03/07 15:26:59;;;;;;;1.97;1.17;;;6.50;99.90;;;;;;4898569;29;20213;-74
2023/03/07 15:29:28;;;;;;;2.10;0.60;;;6.30;99.90;;;;;;4898270;29;20242;-75
2023/03/07 15:31:58;;;;;;;0.70;0.60;;;6.20;99.90;;;;;;4898120;29;20281;-75
2023/03/07 15:34:29;;;;;;;1.20;0.80;;;6.00;99.90;;;;;;4898087;29;20214;-74
2023/03/07 15:37:12;;;;;;;1.27;0.63;;;5.80;99.90;;;;;;4898534;29;20221;-75
2023/03/07 15:39:39;;;;;;;1.23;0.70;;;5.80;99.90;;;;;;4898202;29;20210;-74
2023/03/07 15:42:08;;;;;;;1.13;0.70;;;5.90;99.90;;;;;;4898190;29;20213;-74
2023/03/07 15:44:36;;;;;;;1.60;0.90;;;5.90;99.90;;;;;;4898762;29;20737;-74
2023/03/07 15:47:12;;;;;;;1.33;0.90;;;6.00;99.90;;;;;;4897948;29;20210;-75
2023/03/07 15:49:43;;;;;;;2.20;1.10;;;5.90;99.90;;;;;;4897825;29;20221;-74
2023/03/07 15:52:21;;;;;;;2.13;0.93;;;5.80;99.90;;;;;;4897808;29;20213;-75
2023/03/07 15:54:51;;;;;;;1.13;0.90;;;5.70;99.90;;;;;;4897999;29;20234;-74
2023/03/07 15:57:21;;;;;;;1.43;0.90;;;5.60;99.90;;;;;;4897706;29;20229;-74
2023/03/07 15:59:51;;;;;;;1.60;1.10;;;5.50;99.90;;;;;;4897980;29;20214;-75
2023/03/07 16:02:48;;;;;;;1.80;1.10;;;5.50;99.90;;;;;;4897263;29;20211;-75
2023/03/07 16:05:37;;;;;;;2.97;1.27;;;5.70;99.90;;;;;;4897315;29;20242;-74
2023/03/07 16:08:10;;;;;;;3.80;1.70;;;5.60;99.90;;;;;;4897610;29;20267;-75
2023/03/07 16:10:38;;;;;;;1.77;1.30;;;5.70;99.90;;;;;;4897882;29;20214;-75
2023/03/07 16:13:05;;;;;;;3.13;2.20;;;5.70;99.90;;;;;;4897086;29;20217;-74
2023/03/07 16:15:32;;;;;;;2.50;1.67;;;5.80;99.90;;;;;;4897638;29;20710;-75
2023/03/07 16:17:59;;;;;;;2.97;1.57;;;5.80;99.90;;;;;;4897947;29;20210;-75
2023/03/07 16:20:28;;;;;;;2.90;1.97;;;5.80;99.90;;;;;;4897674;29;20216;-74
2023/03/07 16:22:56;;;;;;;1.87;1.23;;;5.70;99.90;;;;;;4897727;29;20251;-75
2023/03/07 16:25:26;;;;;;;4.00;2.33;;;5.70;99.90;;;;;;4897479;29;20234;-75
2023/03/07 16:27:55;;;;;;;2.53;1.60;;;5.70;99.90;;;;;;4897418;29;20206;-74
2023/03/07 16:30:25;;;;;;;4.27;2.73;;;5.50;99.90;;;;;;4897501;29;20266;-74
2023/03/07 16:32:52;;;;;;;8.07;3.87;;;5.40;99.90;;;;;;4897506;29;20635;-75
2023/03/07 16:35:22;;;;;;;5.70;3.90;;;5.30;99.90;;;;;;4897077;29;20327;-75
2023/03/07 16:37:50;;;;;;;6.10;4.30;;;5.20;99.90;;;;;;4897758;29;20214;-75
2023/03/07 16:40:19;;;;;;;7.93;4.47;;;5.20;99.90;;;;;;4897372;29;20214;-75
2023/03/07 16:42:49;;;;;;;7.17;4.77;;;5.10;99.90;;;;;;4900534;29;20741;-74
2023/03/07 16:45:23;;;;;;;9.57;5.20;;;5.00;99.90;;;;;;4901274;29;20252;-75
2023/03/07 16:47:52;;;;;;;7.00;4.30;;;4.90;99.90;;;;;;4900678;29;20664;-74
2023/03/07 16:50:21;;;;;;;6.53;4.03;;;4.90;99.90;;;;;;4900879;29;20206;-76
2023/03/07 16:52:47;;;;;;;5.07;3.40;;;4.90;99.90;;;;;;4900660;29;20210;-75
2023/03/07 16:55:18;;;;;;;6.27;3.43;;;5.00;99.90;;;;;;4901094;29;20261;-76
2023/03/07 16:57:49;;;;;;;7.43;3.53;;;5.00;99.90;;;;;;4900761;29;20238;-76
2023/03/07 17:00:18;;;;;;;5.07;3.07;;;5.10;99.90;;;;;;4901164;29;20214;-75
2023/03/07 17:02:45;;;;;;;4.37;2.93;;;5.00;99.90;;;;;;4901093;29;20283;-75
2023/03/07 17:05:16;;;;;;;4.93;2.47;;;5.10;99.90;;;;;;4900493;29;20249;-73
2023/03/07 17:07:43;;;;;;;3.30;2.20;;;5.00;99.90;;;;;;4900807;29;20662;-73
2023/03/07 17:10:12;;;;;;;3.63;2.47;;;5.00;99.90;;;;;;4900490;29;20210;-73
2023/03/07 17:12:39;;;;;;;3.43;2.30;;;5.00;99.90;;;;;;4900727;29;20214;-73
2023/03/07 17:15:10;;;;;;;3.67;2.23;;;4.90;99.90;;;;;;4900794;29;20234;-73
2023/03/07 17:17:37;;;;;;;4.50;2.00;;;5.00;99.90;;;;;;4900197;29;20700;-73
2023/03/07 17:20:06;;;;;;;2.93;1.80;;;5.00;99.90;;;;;;4900613;29;20221;-73
2023/03/07 17:22:32;;;;;;;3.33;2.37;;;5.00;99.90;;;;;;4900306;29;20222;-74
2023/03/07 17:25:00;;;;;;;3.70;2.33;;;5.10;99.90;;;;;;4900282;29;20238;-73
2023/03/07 17:27:27;;;;;;;3.53;1.80;;;5.00;99.90;;;;;;4900318;29;20266;-73
2023/03/07 17:29:54;;;;;;;5.13;2.83;;;5.00;99.90;;;;;;4900755;29;20293;-74
2023/03/07 17:32:23;;;;;;;3.77;1.70;;;5.00;99.90;;;;;;4900509;29;20210;-73
2023/03/07 17:34:49;;;;;;;2.90;1.83;;;4.90;99.90;;;;;;4899831;29;20732;-73
2023/03/07 17:37:16;;;;;;;1.93;1.33;;;4.80;99.90;;;;;;4900228;29;20296;-74
2023/03/07 17:39:44;;;;;;;2.03;1.50;;;4.90;99.90;;;;;;4900289;29;20206;-73
2023/03/07 17:42:11;;;;;;;5.57;1.70;;;4.80;99.90;;;;;;4899997;29;20246;-73
2023/03/07 17:44:38;;;;;;;2.17;1.60;;;4.80;99.90;;;;;;4899735;29;20277;-73
2023/03/07 17:47:05;;;;;;;2.37;1.70;;;4.90;99.90;;;;;;4899982;29;20266;-74
2023/03/07 17:49:35;;;;;;;3.03;1.60;;;4.70;99.90;;;;;;4899736;29;20218;-74
2023/03/07 17:52:03;;;;;;;2.67;1.83;;;4.80;99.90;;;;;;4899834;29;20692;-74
2023/03/07 17:54:30;;;;;;;2.43;1.70;;;4.90;99.90;;;;;;4900132;29;20207;-73
2023/03/07 17:56:57;;;;;;;3.20;2.13;;;4.80;99.90;;;;;;4899849;29;20213;-73
2023/03/07 17:59:24;;;;;;;4.70;2.10;;;4.90;99.90;;;;;;4899659;29;20218;-74
2023/03/07 18:01:51;;;;;;;2.60;2.00;;;4.90;99.90;;;;;;4899650;29;20662;-73
2023/03/07 18:04:17;;;;;;;3.33;2.27;;;4.80;99.90;;;;;;4899643;29;20210;-73
2023/03/07 18:06:46;;;;;;;3.40;2.17;;;4.90;99.90;;;;;;4899848;29;20210;-73
2023/03/07 18:09:14;;;;;;;3.90;2.20;;;4.80;99.90;;;;;;4899644;29;20221;-73
2023/03/07 18:11:40;;;;;;;4.50;2.70;;;4.80;99.90;;;;;;4899435;29;20266;-74
2023/03/07 18:14:07;;;;;;;4.80;3.20;;;4.90;99.90;;;;;;4898986;29;20221;-74
2023/03/07 18:16:34;;;;;;;9.10;2.87;;;4.90;99.90;;;;;;4899532;29;20238;-74
2023/03/07 18:19:01;;;;;;;4.57;2.40;;;5.00;99.90;;;;;;4899582;29;20712;-73
2023/03/07 18:21:28;;;;;;;3.80;2.60;;;5.00;99.90;;;;;;4899579;29;20213;-74
2023/03/07 18:23:57;;;;;;;4.67;3.03;;;4.90;99.90;;;;;;4899485;29;20249;-73
2023/03/07 18:26:24;;;;;;;4.00;2.60;;;4.80;99.90;;;;;;4899144;29;20258;-74
2023/03/07 18:28:52;;;;;;;8.13;3.23;;;4.80;99.90;;;;;;4899461;29;20210;-74
2023/03/07 18:31:21;;;;;;;8.67;5.10;;;4.80;99.90;;;;;;4899185;29;20722;-73
2023/03/07 18:33:51;;;;;;;10.73;5.77;;;4.90;99.90;;;;;;4899301;29;20211;-73
2023/03/07 18:36:20;;;;;;;4.57;3.10;;;4.90;99.90;;;;;;4898954;29;20230;-73
2023/03/07 18:38:47;;;;;;;7.93;2.90;;;4.80;99.90;;;;;;4899069;29;20238;-73
2023/03/07 18:41:17;;;;;;;7.17;4.23;;;4.80;99.90;;;;;;4898872;29;20210;-73
2023/03/07 18:43:44;;;;;;;5.53;3.80;;;4.80;99.90;;;;;;4899049;29;20236;-73
2023/03/07 18:46:13;;;;;;;9.70;3.73;;;4.80;99.90;;;;;;4898672;29;20246;-73
2023/03/07 18:48:40;;;;;;;5.63;2.53;;;4.70;99.90;;;;;;4898810;29;20222;-73
2023/03/07 18:51:08;;;;;;;4.90;3.27;;;4.70;99.90;;;;;;4898652;29;20217;-74
2023/03/07 18:53:36;;;;;;;5.57;3.00;;;4.70;99.90;;;;;;4899073;29;20214;-73
2023/03/07 18:56:04;;;;;;;4.03;2.67;;;4.60;99.90;;;;;;4898890;29;20233;-74
2023/03/07 18:58:32;;;;;;;4.37;2.97;;;4.60;99.90;;;;;;4898584;29;20211;-73
2023/03/07 19:01:09;;;;;;;5.40;3.47;;;4.60;99.90;;;;;;4898681;29;20226;-74
2023/03/07 19:03:36;;;;;;;4.53;2.90;;;4.60;99.90;;;;;;4898096;29;20345;-75
2023/03/07 19:06:02;;;;;;;5.23;3.40;;;4.60;99.90;;;;;;4898462;29;20242;-72
2023/03/07 19:08:29;;;;;;;5.60;3.17;;;4.60;99.90;;;;;;4898477;29;20226;-73
2023/03/07 19:10:56;;;;;;;5.97;3.17;;;4.50;99.90;;;;;;4898417;29;20211;-76
2023/03/07 19:13:23;;;;;;;5.03;3.30;;;4.50;99.90;;;;;;4898611;29;20301;-75
2023/03/07 19:16:00;;;;;;;7.83;3.60;;;4.50;99.90;;;;;;4898261;29;20234;-73
2023/03/07 19:18:27;;;;;;;6.90;3.73;;;4.60;99.90;;;;;;4898583;29;20300;-73
2023/03/07 19:20:54;;;;;;;5.47;3.30;;;4.70;99.90;;;;;;4898760;29;20649;-74
2023/03/07 19:23:21;;;;;;;5.67;3.73;;;4.80;99.90;;;;;;4898546;29;20210;-74
2023/03/07 19:25:48;;;;;;;6.67;3.43;;;4.80;99.90;;;;;;4898072;29;20243;-74
2023/03/07 19:28:15;;;;;;;5.50;2.87;;;4.70;99.90;;;;;;4898144;29;20221;-74
2023/03/07 19:30:42;;;;;;;6.57;3.80;;;4.70;99.90;;;;;;4898204;29;20214;-74
2023/03/07 19:33:10;;;;;;;6.53;4.23;;;4.50;99.90;;;;;;4897939;29;20214;-74
2023/03/07 19:35:37;;;;;;;11.07;4.10;;;4.60;99.90;;;;;;4898272;29;20235;-73
2023/03/07 19:38:03;;;;;;;6.27;3.27;;;4.70;99.90;;;;;;4898302;29;20221;-73
2023/03/07 19:40:30;;;;;;;7.93;4.73;;;4.60;99.90;;;;;;4898264;29;20210;-74
2023/03/07 19:42:57;;;;;;;7.03;3.73;;;4.60;99.90;;;;;;4898185;29;20237;-73
2023/03/07 19:45:25;;;;;;;8.33;3.70;;;4.50;99.90;;;;;;4897788;29;20242;-74
2023/03/07 19:47:52;;;;;;;6.90;3.27;;;4.30;99.90;;;;;;4897903;29;20230;-74
2023/03/07 19:50:20;;;;;;;7.57;3.33;;;4.30;99.90;;;;;;4898034;29;20214;-74
2023/03/07 19:52:47;;;;;;;7.07;3.63;;;4.30;99.90;;;;;;4897762;29;20206;-74
2023/03/07 19:55:14;;;;;;;8.40;4.90;;;4.30;99.90;;;;;;4897794;29;20230;-74
2023/03/07 19:57:41;;;;;;;10.00;4.60;;;4.40;99.90;;;;;;4898028;29;20211;-74
2023/03/07 20:00:09;;;;;;;5.73;3.73;;;4.60;99.90;;;;;;4897682;29;20245;-74
2023/03/07 20:02:36;;;;;;;7.03;4.20;;;4.60;99.90;;;;;;4897682;29;20206;-73
2023/03/07 20:05:04;;;;;;;6.80;3.97;;;4.60;99.90;;;;;;4897233;29;20593;-73
2023/03/07 20:07:32;;;;;;;7.73;4.67;;;4.60;99.90;;;;;;4897789;29;20309;-74
2023/03/07 20:09:59;;;;;;;7.97;4.30;;;4.60;99.90;;;;;;4897554;29;20211;-74
2023/03/07 20:12:26;;;;;;;7.57;4.50;;;4.60;99.90;;;;;;4897830;29;20666;-74
2023/03/07 20:14:53;;;;;;;11.37;4.30;;;4.80;99.90;;;;;;4897241;29;20236;-75
2023/03/07 20:17:20;;;;;;;7.87;3.70;;;4.80;99.90;;;;;;4898835;29;20214;-74
2023/03/07 20:19:49;;;;;;;7.07;3.90;;;4.90;99.90;;;;;;4899293;29;20210;-74
2023/03/07 20:22:16;;;;;;;7.23;3.47;;;4.90;99.90;;;;;;4898900;29;20232;-74
2023/03/07 20:24:44;;;;;;;11.13;4.53;;;4.80;99.90;;;;;;4897544;29;20234;-74
2023/03/07 20:27:12;;;;;;;7.43;3.93;;;4.70;99.90;;;;;;4897312;29;20516;-74
2023/03/07 20:29:39;;;;;;;7.17;4.57;;;4.70;99.90;;;;;;4897279;29;20317;-74
2023/03/07 20:32:06;;;;;;;6.67;4.40;;;4.60;99.90;;;;;;4897754;29;20218;-74
2023/03/07 20:34:34;;;;;;;8.53;4.03;;;4.50;99.90;;;;;;4897378;29;20207;-73
2023/03/07 20:37:01;;;;;;;8.23;5.23;;;4.50;99.90;;;;;;4897593;29;20220;-73
2023/03/07 20:39:27;;;;;;;6.70;3.77;;;4.50;99.90;;;;;;4897052;29;20217;-73
2023/03/07 20:41:55;;;;;;;7.23;4.50;;;4.50;99.90;;;;;;4897482;29;20279;-73
2023/03/07 20:44:22;;;;;;;8.43;4.33;;;4.40;99.90;;;;;;4897614;29;20306;-73
2023/03/07 20:46:49;;;;;;;7.73;3.90;;;4.40;99.90;;;;;;4897611;29;20605;-73
2023/03/07 20:49:17;;;;;;;6.73;4.23;;;4.50;99.90;;;;;;4897267;29;20224;-73
2023/03/07 20:51:44;;;;;;;6.97;4.40;;;4.40;99.90;;;;;;4897284;29;20214;-73
2023/03/07 20:54:13;;;;;;;11.57;4.70;;;4.40;99.90;;;;;;4897341;29;20217;-72
2023/03/07 20:56:41;;;;;;;8.60;4.70;;;4.40;99.90;;;;;;4897248;29;20234;-75
2023/03/07 20:59:12;;;;;;;7.43;4.73;;;4.40;99.90;;;;;;4897618;29;20222;-74
2023/03/07 21:01:40;;;;;;;9.83;5.80;;;4.30;99.90;;;;;;4897401;29;20211;-74
2023/03/07 21:04:10;;;;;;;8.40;4.60;;;4.30;99.90;;;;;;4896944;29;20574;-73
2023/03/07 21:06:38;;;;;;;9.50;5.63;;;4.30;99.90;;;;;;4896799;29;20261;-73
2023/03/07 21:09:08;;;;;;;8.20;4.80;;;4.30;99.90;;;;;;4896976;29;20210;-75
2023/03/07 21:11:37;;;;;;;9.80;5.20;;;4.30;99.90;;;;;;4897345;29;20309;-75
2023/03/07 21:14:04;;;;;;;9.67;5.10;;;4.40;99.90;;;;;;4897164;29;20737;-75
2023/03/07 21:16:32;;;;;;;11.03;5.67;;;4.40;99.90;;;;;;4897003;29;20736;-76
2023/03/07 21:19:00;;;;;;;8.23;4.87;;;4.50;99.90;;;;;;4897158;29;20297;-74
2023/03/07 21:21:29;;;;;;;8.83;5.40;;;4.60;99.90;;;;;;4896900;29;20217;-75
2023/03/07 21:23:56;;;;;;;9.60;5.10;;;4.50;99.90;;;;;;4897339;29;20207;-74
2023/03/07 21:26:25;;;;;;;11.57;5.50;;;4.40;99.90;;;;;;4896854;29;20289;-75
2023/03/07 21:28:53;;;;;;;11.17;5.63;;;4.40;99.90;;;;;;4900365;29;20228;-74
2023/03/07 21:31:22;;;;;;;9.83;5.67;;;4.30;99.90;;;;;;4900310;29;20304;-75
2023/03/07 21:33:53;;;;;;;10.77;5.83;;;4.20;99.90;;;;;;4900391;29;20666;-74
2023/03/07 21:36:20;;;;;;;10.00;5.50;;;4.10;99.90;;;;;;4900333;29;20238;-73
2023/03/07 21:38:48;;;;;;;10.70;5.87;;;4.10;99.90;;;;;;4900285;29;20293;-73
2023/03/07 21:41:17;;;;;;;10.30;5.60;;;4.00;99.90;;;;;;4900277;29;20282;-74
2023/03/07 21:43:44;;;;;;;10.80;5.43;;;4.00;99.90;;;;;;4899904;29;20555;-73
2023/03/07 21:46:13;;;;;;;9.70;5.93;;;4.10;99.90;;;;;;4900388;29;20248;-73
2023/03/07 21:48:40;;;;;;;8.50;5.47;;;3.90;99.90;;;;;;4899692;29;20219;-73
2023/03/07 21:51:09;;;;;;;11.30;6.00;;;4.00;99.90;;;;;;4899976;29;20244;-73
2023/03/07 21:53:35;;;;;;;10.40;6.43;;;3.90;99.90;;;;;;4900052;29;20674;-74
2023/03/07 21:56:05;;;;;;;12.40;6.27;;;3.90;99.90;;;;;;4900029;29;20238;-73
2023/03/07 21:58:32;;;;;;;11.50;6.00;;;3.90;99.90;;;;;;4900251;29;20214;-74
2023/03/07 22:01:00;;;;;;;10.87;6.00;;;3.90;99.90;;;;;;4899784;29;20578;-73
2023/03/07 22:03:28;;;;;;;10.43;5.67;;;3.90;99.90;;;;;;4899732;29;20210;-74
2023/03/07 22:05:55;;;;;;;11.40;5.73;;;3.80;99.90;;;;;;4899638;29;20332;-74
2023/03/07 22:08:24;;;;;;;10.77;5.90;;;3.80;99.90;;;;;;4899502;29;20599;-73
2023/03/07 22:10:58;;;;;;;9.43;5.30;;;3.80;99.90;;;;;;4899577;29;20210;-73
2023/03/07 22:13:25;;;;;;;9.97;5.50;;;3.80;99.90;;;;;;4899572;29;20214;-73
2023/03/07 22:15:56;;;;;;;10.43;5.40;;;4.00;99.90;;;;;;4899413;29;20230;-73
2023/03/07 22:18:23;;;;;;;9.77;5.47;;;4.00;99.90;;;;;;4899630;29;20222;-73
2023/03/07 22:20:49;;;;;;;12.70;5.17;;;4.00;99.90;;;;;;4899615;29;20214;-73
2023/03/07 22:23:16;;;;;;;15.57;5.90;;;3.90;99.90;;;;;;4899686;29;20221;-73
2023/03/07 22:25:45;;;;;;;8.73;5.40;;;4.00;99.90;;;;;;4899372;29;20235;-74
2023/03/07 22:28:15;;;;;;;10.80;5.87;;;4.10;99.90;;;;;;4894656;29;20228;-73
